sensor_id;sensor_type;location;lat;lon;timestamp;P1;durP1;ratioP1;P2;durP2;ratioP2
23866;SDS011;12114;53.404;-1.502;2023-07-08T00:02:18;10.80;;;5.85;;
23866;SDS011;12114;53.404;-1.502;2023-07-08T00:05:02;10.80;;;5.75;;
23866;SDS011;12114;53.404;-1.502;2023-07-08T00:07:46;6.57;;;5.45;;
23866;SDS011;12114;53.404;-1.502;2023-07-08T00:10:31;12.90;;;6.63;;
23866;SDS011;12114;53.404;-1.502;2023-07-08T00:13:15;9.57;;;5.95;;
23866;SDS011;12114;53.404;-1.502;2023-07-08T00:15:59;10.25;;;6.10;;
23866;SDS011;12114;53.404;-1.502;2023-07-08T00:18:43;10.20;;;5.45;;
23866;SDS011;12114;53.404;-1.502;2023-07-08T00:21:26;9.80;;;5.32;;
23866;SDS011;12114;53.404;-1.502;2023-07-08T00:24:11;11.52;;;5.28;;
23866;SDS011;12114;53.404;-1.502;2023-07-08T00:26:55;7.82;;;4.57;;
23866;SDS011;12114;53.404;-1.502;2023-07-08T00:29:39;9.23;;;5.22;;
23866;SDS011;12114;53.404;-1.502;2023-07-08T00:32:23;8.82;;;4.97;;
23866;SDS011;12114;53.404;-1.502;2023-07-08T00:35:07;8.75;;;4.68;;
23866;SDS011;12114;53.404;-1.502;2023-07-08T00:37:51;10.02;;;6.07;;
23866;SDS011;12114;53.404;-1.502;2023-07-08T00:40:36;9.25;;;5.53;;
23866;SDS011;12114;53.404;-1.502;2023-07-08T00:43:23;8.45;;;5.50;;
23866;SDS011;12114;53.404;-1.502;2023-07-08T00:55:17;7.40;;;5.25;;
23866;SDS011;12114;53.404;-1.502;2023-07-08T00:58:01;6.97;;;5.30;;
23866;SDS011;12114;53.404;-1.502;2023-07-08T01:00:45;8.52;;;5.35;;
23866;SDS011;12114;53.404;-1.502;2023-07-08T01:03:29;7.72;;;4.95;;
23866;SDS011;12114;53.404;-1.502;2023-07-08T01:06:13;10.73;;;5.80;;
23866;SDS011;12114;53.404;-1.502;2023-07-08T01:08:58;7.63;;;5.10;;
23866;SDS011;12114;53.404;-1.502;2023-07-08T01:11:43;9.35;;;5.10;;
23866;SDS011;12114;53.404;-1.502;2023-07-08T01:14:29;7.35;;;4.88;;
23866;SDS011;12114;53.404;-1.502;2023-07-08T01:17:15;8.75;;;5.18;;
23866;SDS011;12114;53.404;-1.502;2023-07-08T01:19:59;9.45;;;5.28;;
23866;SDS011;12114;53.404;-1.502;2023-07-08T01:22:43;10.45;;;5.55;;
23866;SDS011;12114;53.404;-1.502;2023-07-08T01:25:27;9.48;;;5.32;;
23866;SDS011;12114;53.404;-1.502;2023-07-08T01:28:11;7.55;;;4.65;;
23866;SDS011;12114;53.404;-1.502;2023-07-08T01:30:55;7.85;;;4.82;;
23866;SDS011;12114;53.404;-1.502;2023-07-08T01:33:39;10.00;;;5.43;;
23866;SDS011;12114;53.404;-1.502;2023-07-08T01:36:23;14.63;;;5.35;;
23866;SDS011;12114;53.404;-1.502;2023-07-08T01:39:09;9.35;;;5.60;;
23866;SDS011;12114;53.404;-1.502;2023-07-08T01:41:55;9.02;;;5.55;;
23866;SDS011;12114;53.404;-1.502;2023-07-08T01:44:39;7.28;;;5.05;;
23866;SDS011;12114;53.404;-1.502;2023-07-08T01:47:23;9.45;;;5.20;;
23866;SDS011;12114;53.404;-1.502;2023-07-08T01:50:07;9.48;;;5.00;;
23866;SDS011;12114;53.404;-1.502;2023-07-08T01:52:52;11.30;;;5.88;;
23866;SDS011;12114;53.404;-1.502;2023-07-08T01:55:37;8.60;;;5.37;;
23866;SDS011;12114;53.404;-1.502;2023-07-08T01:58:21;7.78;;;5.22;;
23866;SDS011;12114;53.404;-1.502;2023-07-08T02:01:05;7.93;;;5.07;;
23866;SDS011;12114;53.404;-1.502;2023-07-08T02:03:49;8.45;;;5.35;;
23866;SDS011;12114;53.404;-1.502;2023-07-08T02:06:33;8.18;;;5.35;;
23866;SDS011;12114;53.404;-1.502;2023-07-08T02:09:17;9.77;;;5.50;;
23866;SDS011;12114;53.404;-1.502;2023-07-08T02:12:02;7.20;;;5.10;;
23866;SDS011;12114;53.404;-1.502;2023-07-08T02:14:45;11.93;;;6.28;;
23866;SDS011;12114;53.404;-1.502;2023-07-08T02:17:29;10.45;;;5.75;;
23866;SDS011;12114;53.404;-1.502;2023-07-08T02:20:14;13.38;;;5.68;;
23866;SDS011;12114;53.404;-1.502;2023-07-08T02:22:57;8.18;;;5.85;;
23866;SDS011;12114;53.404;-1.502;2023-07-08T02:25:43;8.40;;;5.35;;
23866;SDS011;12114;53.404;-1.502;2023-07-08T02:28:33;10.32;;;5.30;;
23866;SDS011;12114;53.404;-1.502;2023-07-08T02:31:17;8.10;;;5.57;;
23866;SDS011;12114;53.404;-1.502;2023-07-08T02:34:01;10.38;;;5.57;;
23866;SDS011;12114;53.404;-1.502;2023-07-08T02:36:45;7.57;;;5.38;;
23866;SDS011;12114;53.404;-1.502;2023-07-08T02:39:30;10.93;;;5.05;;
23866;SDS011;12114;53.404;-1.502;2023-07-08T02:42:14;8.70;;;5.18;;
23866;SDS011;12114;53.404;-1.502;2023-07-08T02:44:58;8.48;;;4.75;;
23866;SDS011;12114;53.404;-1.502;2023-07-08T02:47:42;7.13;;;5.18;;
23866;SDS011;12114;53.404;-1.502;2023-07-08T02:50:26;7.68;;;5.20;;
23866;SDS011;12114;53.404;-1.502;2023-07-08T02:53:09;8.02;;;4.88;;
23866;SDS011;12114;53.404;-1.502;2023-07-08T02:55:54;8.77;;;5.03;;
23866;SDS011;12114;53.404;-1.502;2023-07-08T02:58:37;7.03;;;5.35;;
23866;SDS011;12114;53.404;-1.502;2023-07-08T03:01:21;8.50;;;4.93;;
23866;SDS011;12114;53.404;-1.502;2023-07-08T03:04:07;8.40;;;5.10;;
23866;SDS011;12114;53.404;-1.502;2023-07-08T03:06:52;9.68;;;5.03;;
23866;SDS011;12114;53.404;-1.502;2023-07-08T03:09:40;7.60;;;5.10;;
23866;SDS011;12114;53.404;-1.502;2023-07-08T03:12:24;11.98;;;5.82;;
23866;SDS011;12114;53.404;-1.502;2023-07-08T03:15:08;6.97;;;5.10;;
23866;SDS011;12114;53.404;-1.502;2023-07-08T03:17:52;8.13;;;5.43;;
23866;SDS011;12114;53.404;-1.502;2023-07-08T03:20:43;11.10;;;4.70;;
23866;SDS011;12114;53.404;-1.502;2023-07-08T03:23:30;9.98;;;5.18;;
23866;SDS011;12114;53.404;-1.502;2023-07-08T03:26:15;8.15;;;4.72;;
23866;SDS011;12114;53.404;-1.502;2023-07-08T03:28:59;10.43;;;5.47;;
23866;SDS011;12114;53.404;-1.502;2023-07-08T03:31:44;8.93;;;5.50;;
23866;SDS011;12114;53.404;-1.502;2023-07-08T03:34:28;9.93;;;5.30;;
23866;SDS011;12114;53.404;-1.502;2023-07-08T03:37:12;10.30;;;5.00;;
23866;SDS011;12114;53.404;-1.502;2023-07-08T03:39:56;8.98;;;5.13;;
23866;SDS011;12114;53.404;-1.502;2023-07-08T03:42:39;8.60;;;5.00;;
23866;SDS011;12114;53.404;-1.502;2023-07-08T03:45:25;7.93;;;5.50;;
23866;SDS011;12114;53.404;-1.502;2023-07-08T03:48:12;7.22;;;4.68;;
23866;SDS011;12114;53.404;-1.502;2023-07-08T03:50:56;8.65;;;4.93;;
23866;SDS011;12114;53.404;-1.502;2023-07-08T03:53:40;10.95;;;5.47;;
23866;SDS011;12114;53.404;-1.502;2023-07-08T03:56:24;8.57;;;5.10;;
23866;SDS011;12114;53.404;-1.502;2023-07-08T03:59:08;7.75;;;5.40;;
23866;SDS011;12114;53.404;-1.502;2023-07-08T04:01:52;7.72;;;4.60;;
23866;SDS011;12114;53.404;-1.502;2023-07-08T04:04:36;7.55;;;4.90;;
23866;SDS011;12114;53.404;-1.502;2023-07-08T04:07:21;7.95;;;4.88;;
23866;SDS011;12114;53.404;-1.502;2023-07-08T04:10:05;11.23;;;5.20;;
23866;SDS011;12114;53.404;-1.502;2023-07-08T04:12:49;7.75;;;5.70;;
23866;SDS011;12114;53.404;-1.502;2023-07-08T04:15:33;9.38;;;5.35;;
23866;SDS011;12114;53.404;-1.502;2023-07-08T04:18:17;9.02;;;5.38;;
23866;SDS011;12114;53.404;-1.502;2023-07-08T04:21:01;8.23;;;5.45;;
23866;SDS011;12114;53.404;-1.502;2023-07-08T04:23:46;8.07;;;5.35;;
23866;SDS011;12114;53.404;-1.502;2023-07-08T04:26:30;8.90;;;5.20;;
23866;SDS011;12114;53.404;-1.502;2023-07-08T04:29:17;12.88;;;4.97;;
23866;SDS011;12114;53.404;-1.502;2023-07-08T04:32:01;9.95;;;5.80;;
23866;SDS011;12114;53.404;-1.502;2023-07-08T04:34:45;7.20;;;5.30;;
23866;SDS011;12114;53.404;-1.502;2023-07-08T04:37:29;9.38;;;5.47;;
23866;SDS011;12114;53.404;-1.502;2023-07-08T04:40:18;8.77;;;4.95;;
23866;SDS011;12114;53.404;-1.502;2023-07-08T04:43:02;9.63;;;5.70;;
23866;SDS011;12114;53.404;-1.502;2023-07-08T04:45:48;9.05;;;5.53;;
23866;SDS011;12114;53.404;-1.502;2023-07-08T04:48:33;10.95;;;5.47;;
23866;SDS011;12114;53.404;-1.502;2023-07-08T04:51:17;11.02;;;5.22;;
23866;SDS011;12114;53.404;-1.502;2023-07-08T04:54:02;9.67;;;5.47;;
23866;SDS011;12114;53.404;-1.502;2023-07-08T04:56:47;7.30;;;5.13;;
23866;SDS011;12114;53.404;-1.502;2023-07-08T04:59:31;12.10;;;5.30;;
23866;SDS011;12114;53.404;-1.502;2023-07-08T05:02:18;9.88;;;5.28;;
23866;SDS011;12114;53.404;-1.502;2023-07-08T05:05:04;8.10;;;5.88;;
23866;SDS011;12114;53.404;-1.502;2023-07-08T05:07:47;11.70;;;5.63;;
23866;SDS011;12114;53.404;-1.502;2023-07-08T05:10:33;12.32;;;5.70;;
23866;SDS011;12114;53.404;-1.502;2023-07-08T05:13:17;9.63;;;5.50;;
23866;SDS011;12114;53.404;-1.502;2023-07-08T05:16:01;11.82;;;5.35;;
23866;SDS011;12114;53.404;-1.502;2023-07-08T05:18:45;10.73;;;5.60;;
23866;SDS011;12114;53.404;-1.502;2023-07-08T05:21:29;10.65;;;5.15;;
23866;SDS011;12114;53.404;-1.502;2023-07-08T05:24:16;11.07;;;5.53;;
23866;SDS011;12114;53.404;-1.502;2023-07-08T05:27:00;8.15;;;5.50;;
23866;SDS011;12114;53.404;-1.502;2023-07-08T05:29:48;9.00;;;5.35;;
23866;SDS011;12114;53.404;-1.502;2023-07-08T05:32:32;8.88;;;5.30;;
23866;SDS011;12114;53.404;-1.502;2023-07-08T05:35:17;10.13;;;5.05;;
23866;SDS011;12114;53.404;-1.502;2023-07-08T05:38:01;8.63;;;5.13;;
23866;SDS011;12114;53.404;-1.502;2023-07-08T05:40:49;10.02;;;5.22;;
23866;SDS011;12114;53.404;-1.502;2023-07-08T05:43:32;7.72;;;4.93;;
23866;SDS011;12114;53.404;-1.502;2023-07-08T05:46:16;7.65;;;4.85;;
23866;SDS011;12114;53.404;-1.502;2023-07-08T05:49:00;11.02;;;5.70;;
23866;SDS011;12114;53.404;-1.502;2023-07-08T05:51:44;9.85;;;4.97;;
23866;SDS011;12114;53.404;-1.502;2023-07-08T05:54:28;7.15;;;5.05;;
23866;SDS011;12114;53.404;-1.502;2023-07-08T05:57:12;8.80;;;5.20;;
23866;SDS011;12114;53.404;-1.502;2023-07-08T05:59:56;6.88;;;4.53;;
23866;SDS011;12114;53.404;-1.502;2023-07-08T06:02:40;10.32;;;5.00;;
23866;SDS011;12114;53.404;-1.502;2023-07-08T06:05:24;7.78;;;4.97;;
23866;SDS011;12114;53.404;-1.502;2023-07-08T06:08:08;7.25;;;4.68;;
23866;SDS011;12114;53.404;-1.502;2023-07-08T06:10:52;7.30;;;4.40;;
23866;SDS011;12114;53.404;-1.502;2023-07-08T06:13:36;9.85;;;5.13;;
23866;SDS011;12114;53.404;-1.502;2023-07-08T06:16:20;10.88;;;4.40;;
23866;SDS011;12114;53.404;-1.502;2023-07-08T06:19:04;10.13;;;6.72;;
23866;SDS011;12114;53.404;-1.502;2023-07-08T06:21:48;12.30;;;5.88;;
23866;SDS011;12114;53.404;-1.502;2023-07-08T06:24:32;8.32;;;5.80;;
23866;SDS011;12114;53.404;-1.502;2023-07-08T06:27:16;13.35;;;5.63;;
23866;SDS011;12114;53.404;-1.502;2023-07-08T06:30:00;9.23;;;5.38;;
23866;SDS011;12114;53.404;-1.502;2023-07-08T06:32:44;12.43;;;5.57;;
23866;SDS011;12114;53.404;-1.502;2023-07-08T06:35:28;9.65;;;5.45;;
23866;SDS011;12114;53.404;-1.502;2023-07-08T06:38:12;11.77;;;6.10;;
23866;SDS011;12114;53.404;-1.502;2023-07-08T06:40:56;8.15;;;5.88;;
23866;SDS011;12114;53.404;-1.502;2023-07-08T06:43:40;9.13;;;5.63;;
23866;SDS011;12114;53.404;-1.502;2023-07-08T06:46:24;9.50;;;5.88;;
23866;SDS011;12114;53.404;-1.502;2023-07-08T06:49:08;9.73;;;5.30;;
23866;SDS011;12114;53.404;-1.502;2023-07-08T06:51:53;9.93;;;6.05;;
23866;SDS011;12114;53.404;-1.502;2023-07-08T06:54:37;12.35;;;5.97;;
23866;SDS011;12114;53.404;-1.502;2023-07-08T06:57:21;10.80;;;5.47;;
23866;SDS011;12114;53.404;-1.502;2023-07-08T07:00:09;7.53;;;5.05;;
23866;SDS011;12114;53.404;-1.502;2023-07-08T07:02:53;13.63;;;5.60;;
23866;SDS011;12114;53.404;-1.502;2023-07-08T07:05:37;9.90;;;5.47;;
23866;SDS011;12114;53.404;-1.502;2023-07-08T07:08:21;11.00;;;5.65;;
23866;SDS011;12114;53.404;-1.502;2023-07-08T07:11:05;14.60;;;6.05;;
23866;SDS011;12114;53.404;-1.502;2023-07-08T07:13:49;12.88;;;5.95;;
23866;SDS011;12114;53.404;-1.502;2023-07-08T07:16:33;14.57;;;6.20;;
23866;SDS011;12114;53.404;-1.502;2023-07-08T07:19:17;10.25;;;5.25;;
23866;SDS011;12114;53.404;-1.502;2023-07-08T07:22:02;10.57;;;6.05;;
23866;SDS011;12114;53.404;-1.502;2023-07-08T07:24:46;16.35;;;5.88;;
23866;SDS011;12114;53.404;-1.502;2023-07-08T07:27:30;9.90;;;5.60;;
23866;SDS011;12114;53.404;-1.502;2023-07-08T07:30:14;10.15;;;5.60;;
23866;SDS011;12114;53.404;-1.502;2023-07-08T07:32:59;12.35;;;6.10;;
23866;SDS011;12114;53.404;-1.502;2023-07-08T07:35:44;9.97;;;5.17;;
23866;SDS011;12114;53.404;-1.502;2023-07-08T07:38:29;9.30;;;5.65;;
23866;SDS011;12114;53.404;-1.502;2023-07-08T07:41:13;8.18;;;5.20;;
23866;SDS011;12114;53.404;-1.502;2023-07-08T07:43:57;10.77;;;5.60;;
23866;SDS011;12114;53.404;-1.502;2023-07-08T07:46:41;9.68;;;5.65;;
23866;SDS011;12114;53.404;-1.502;2023-07-08T07:49:25;11.35;;;5.50;;
23866;SDS011;12114;53.404;-1.502;2023-07-08T07:52:09;10.13;;;5.68;;
23866;SDS011;12114;53.404;-1.502;2023-07-08T07:54:55;12.82;;;4.97;;
23866;SDS011;12114;53.404;-1.502;2023-07-08T07:57:39;12.13;;;6.15;;
23866;SDS011;12114;53.404;-1.502;2023-07-08T08:00:25;11.00;;;5.75;;
23866;SDS011;12114;53.404;-1.502;2023-07-08T08:03:09;11.73;;;5.78;;
23866;SDS011;12114;53.404;-1.502;2023-07-08T08:05:53;11.48;;;5.80;;
23866;SDS011;12114;53.404;-1.502;2023-07-08T08:08:37;10.15;;;5.88;;
23866;SDS011;12114;53.404;-1.502;2023-07-08T08:11:21;7.53;;;5.10;;
23866;SDS011;12114;53.404;-1.502;2023-07-08T08:14:05;9.15;;;5.00;;
23866;SDS011;12114;53.404;-1.502;2023-07-08T08:16:49;10.18;;;5.43;;
23866;SDS011;12114;53.404;-1.502;2023-07-08T08:19:33;8.73;;;5.63;;
23866;SDS011;12114;53.404;-1.502;2023-07-08T08:22:17;10.02;;;5.45;;
23866;SDS011;12114;53.404;-1.502;2023-07-08T08:25:01;9.18;;;5.38;;
23866;SDS011;12114;53.404;-1.502;2023-07-08T08:27:45;9.48;;;5.22;;
23866;SDS011;12114;53.404;-1.502;2023-07-08T08:30:29;12.63;;;5.55;;
23866;SDS011;12114;53.404;-1.502;2023-07-08T08:33:13;11.57;;;5.20;;
23866;SDS011;12114;53.404;-1.502;2023-07-08T08:35:57;12.40;;;5.80;;
23866;SDS011;12114;53.404;-1.502;2023-07-08T08:38:41;12.00;;;5.30;;
23866;SDS011;12114;53.404;-1.502;2023-07-08T08:41:32;10.45;;;6.75;;
23866;SDS011;12114;53.404;-1.502;2023-07-08T08:44:17;7.35;;;5.18;;
23866;SDS011;12114;53.404;-1.502;2023-07-08T08:47:07;9.88;;;5.30;;
23866;SDS011;12114;53.404;-1.502;2023-07-08T08:50:24;10.68;;;5.75;;
23866;SDS011;12114;53.404;-1.502;2023-07-08T08:53:01;11.15;;;5.18;;
23866;SDS011;12114;53.404;-1.502;2023-07-08T08:55:47;11.43;;;5.38;;
23866;SDS011;12114;53.404;-1.502;2023-07-08T08:58:52;9.77;;;5.25;;
23866;SDS011;12114;53.404;-1.502;2023-07-08T09:01:39;12.02;;;5.25;;
23866;SDS011;12114;53.404;-1.502;2023-07-08T09:04:25;10.10;;;5.53;;
23866;SDS011;12114;53.404;-1.502;2023-07-08T09:07:13;14.13;;;5.63;;
23866;SDS011;12114;53.404;-1.502;2023-07-08T09:10:01;9.30;;;5.30;;
23866;SDS011;12114;53.404;-1.502;2023-07-08T09:12:46;10.57;;;6.13;;
23866;SDS011;12114;53.404;-1.502;2023-07-08T09:15:30;10.43;;;5.50;;
23866;SDS011;12114;53.404;-1.502;2023-07-08T09:18:26;11.32;;;5.95;;
23866;SDS011;12114;53.404;-1.502;2023-07-08T09:21:21;10.50;;;5.82;;
23866;SDS011;12114;53.404;-1.502;2023-07-08T09:24:09;11.00;;;6.00;;
23866;SDS011;12114;53.404;-1.502;2023-07-08T09:26:54;9.90;;;4.78;;
23866;SDS011;12114;53.404;-1.502;2023-07-08T09:29:40;12.05;;;5.13;;
23866;SDS011;12114;53.404;-1.502;2023-07-08T09:32:27;10.13;;;5.53;;
23866;SDS011;12114;53.404;-1.502;2023-07-08T09:35:16;8.50;;;5.82;;
23866;SDS011;12114;53.404;-1.502;2023-07-08T09:38:02;8.82;;;5.07;;
23866;SDS011;12114;53.404;-1.502;2023-07-08T09:40:50;12.93;;;5.97;;
23866;SDS011;12114;53.404;-1.502;2023-07-08T09:43:37;12.32;;;6.22;;
23866;SDS011;12114;53.404;-1.502;2023-07-08T09:46:22;17.40;;;5.50;;
23866;SDS011;12114;53.404;-1.502;2023-07-08T09:49:13;12.05;;;5.93;;
23866;SDS011;12114;53.404;-1.502;2023-07-08T09:51:58;10.98;;;5.50;;
23866;SDS011;12114;53.404;-1.502;2023-07-08T09:54:42;9.70;;;5.68;;
23866;SDS011;12114;53.404;-1.502;2023-07-08T09:57:30;10.27;;;5.50;;
23866;SDS011;12114;53.404;-1.502;2023-07-08T10:00:16;7.93;;;4.82;;
23866;SDS011;12114;53.404;-1.502;2023-07-08T10:03:03;12.02;;;4.82;;
23866;SDS011;12114;53.404;-1.502;2023-07-08T10:05:49;9.90;;;5.05;;
23866;SDS011;12114;53.404;-1.502;2023-07-08T10:08:37;11.23;;;4.93;;
23866;SDS011;12114;53.404;-1.502;2023-07-08T10:11:26;9.05;;;5.20;;
23866;SDS011;12114;53.404;-1.502;2023-07-08T10:16:54;14.25;;;6.68;;
23866;SDS011;12114;53.404;-1.502;2023-07-08T10:19:38;9.43;;;5.50;;
23866;SDS011;12114;53.404;-1.502;2023-07-08T10:28:33;10.02;;;5.30;;
23866;SDS011;12114;53.404;-1.502;2023-07-08T10:34:17;8.77;;;6.05;;
23866;SDS011;12114;53.404;-1.502;2023-07-08T10:45:36;14.30;;;5.55;;
23866;SDS011;12114;53.404;-1.502;2023-07-08T10:48:27;12.32;;;5.53;;
23866;SDS011;12114;53.404;-1.502;2023-07-08T11:03:18;16.08;;;6.72;;
23866;SDS011;12114;53.404;-1.502;2023-07-08T11:09:00;13.45;;;6.82;;
23866;SDS011;12114;53.404;-1.502;2023-07-08T11:11:56;10.70;;;6.35;;
23866;SDS011;12114;53.404;-1.502;2023-07-08T11:17:30;12.40;;;6.78;;
23866;SDS011;12114;53.404;-1.502;2023-07-08T11:21:01;12.77;;;7.18;;
23866;SDS011;12114;53.404;-1.502;2023-07-08T11:23:26;10.18;;;6.15;;
23866;SDS011;12114;53.404;-1.502;2023-07-08T11:26:18;13.52;;;6.40;;
23866;SDS011;12114;53.404;-1.502;2023-07-08T11:29:03;12.07;;;6.22;;
23866;SDS011;12114;53.404;-1.502;2023-07-08T11:31:47;11.18;;;5.70;;
23866;SDS011;12114;53.404;-1.502;2023-07-08T11:34:31;11.02;;;6.28;;
23866;SDS011;12114;53.404;-1.502;2023-07-08T11:37:17;14.45;;;7.00;;
23866;SDS011;12114;53.404;-1.502;2023-07-08T11:40:15;10.93;;;6.38;;
23866;SDS011;12114;53.404;-1.502;2023-07-08T11:43:02;14.40;;;6.63;;
23866;SDS011;12114;53.404;-1.502;2023-07-08T11:45:46;11.07;;;6.30;;
23866;SDS011;12114;53.404;-1.502;2023-07-08T11:48:36;15.77;;;6.68;;
23866;SDS011;12114;53.404;-1.502;2023-07-08T11:51:29;14.15;;;7.25;;
23866;SDS011;12114;53.404;-1.502;2023-07-08T11:54:47;15.27;;;6.93;;
23866;SDS011;12114;53.404;-1.502;2023-07-08T11:57:27;12.48;;;7.53;;
23866;SDS011;12114;53.404;-1.502;2023-07-08T12:02:56;15.27;;;7.70;;
23866;SDS011;12114;53.404;-1.502;2023-07-08T12:05:41;15.95;;;7.60;;
23866;SDS011;12114;53.404;-1.502;2023-07-08T12:08:32;14.57;;;8.48;;
23866;SDS011;12114;53.404;-1.502;2023-07-08T12:11:16;12.77;;;8.07;;
23866;SDS011;12114;53.404;-1.502;2023-07-08T12:14:03;12.98;;;8.88;;
23866;SDS011;12114;53.404;-1.502;2023-07-08T12:16:48;14.65;;;8.80;;
23866;SDS011;12114;53.404;-1.502;2023-07-08T12:19:32;13.50;;;8.70;;
23866;SDS011;12114;53.404;-1.502;2023-07-08T12:22:16;13.73;;;8.35;;
23866;SDS011;12114;53.404;-1.502;2023-07-08T12:25:02;13.95;;;8.50;;
23866;SDS011;12114;53.404;-1.502;2023-07-08T12:27:49;14.20;;;7.53;;
23866;SDS011;12114;53.404;-1.502;2023-07-08T12:30:33;11.35;;;7.57;;
23866;SDS011;12114;53.404;-1.502;2023-07-08T12:36:04;11.73;;;8.00;;
23866;SDS011;12114;53.404;-1.502;2023-07-08T12:38:48;12.90;;;7.88;;
23866;SDS011;12114;53.404;-1.502;2023-07-08T12:41:34;10.05;;;6.93;;
23866;SDS011;12114;53.404;-1.502;2023-07-08T12:44:22;11.40;;;7.30;;
23866;SDS011;12114;53.404;-1.502;2023-07-08T12:47:07;17.38;;;8.27;;
23866;SDS011;12114;53.404;-1.502;2023-07-08T12:49:51;13.30;;;8.10;;
23866;SDS011;12114;53.404;-1.502;2023-07-08T12:52:36;14.15;;;9.68;;
23866;SDS011;12114;53.404;-1.502;2023-07-08T12:55:20;13.43;;;8.88;;
23866;SDS011;12114;53.404;-1.502;2023-07-08T12:58:04;15.00;;;8.20;;
23866;SDS011;12114;53.404;-1.502;2023-07-08T13:00:49;11.27;;;7.85;;
23866;SDS011;12114;53.404;-1.502;2023-07-08T13:03:37;15.05;;;7.88;;
23866;SDS011;12114;53.404;-1.502;2023-07-08T13:06:28;11.95;;;6.90;;
23866;SDS011;12114;53.404;-1.502;2023-07-08T13:12:16;11.85;;;6.97;;
23866;SDS011;12114;53.404;-1.502;2023-07-08T13:15:04;9.32;;;6.03;;
23866;SDS011;12114;53.404;-1.502;2023-07-08T13:17:49;9.73;;;4.97;;
23866;SDS011;12114;53.404;-1.502;2023-07-08T13:20:32;7.90;;;4.72;;
23866;SDS011;12114;53.404;-1.502;2023-07-08T13:23:17;10.88;;;5.20;;
23866;SDS011;12114;53.404;-1.502;2023-07-08T13:26:00;9.43;;;5.88;;
23866;SDS011;12114;53.404;-1.502;2023-07-08T13:28:44;11.07;;;4.82;;
23866;SDS011;12114;53.404;-1.502;2023-07-08T13:31:33;10.80;;;4.78;;
23866;SDS011;12114;53.404;-1.502;2023-07-08T13:34:18;10.27;;;5.20;;
23866;SDS011;12114;53.404;-1.502;2023-07-08T13:37:02;10.88;;;5.28;;
23866;SDS011;12114;53.404;-1.502;2023-07-08T13:39:46;10.20;;;4.55;;
23866;SDS011;12114;53.404;-1.502;2023-07-08T13:42:30;8.20;;;4.10;;
23866;SDS011;12114;53.404;-1.502;2023-07-08T13:45:19;8.52;;;4.28;;
23866;SDS011;12114;53.404;-1.502;2023-07-08T13:48:13;8.55;;;3.97;;
23866;SDS011;12114;53.404;-1.502;2023-07-08T13:50:58;8.80;;;3.67;;
23866;SDS011;12114;53.404;-1.502;2023-07-08T13:53:46;6.57;;;3.80;;
23866;SDS011;12114;53.404;-1.502;2023-07-08T13:56:31;10.23;;;4.38;;
23866;SDS011;12114;53.404;-1.502;2023-07-08T13:59:17;7.30;;;3.45;;
23866;SDS011;12114;53.404;-1.502;2023-07-08T14:02:01;6.50;;;3.45;;
23866;SDS011;12114;53.404;-1.502;2023-07-08T14:04:45;7.80;;;3.30;;
23866;SDS011;12114;53.404;-1.502;2023-07-08T14:07:31;7.57;;;3.60;;
23866;SDS011;12114;53.404;-1.502;2023-07-08T14:10:15;8.75;;;3.53;;
23866;SDS011;12114;53.404;-1.502;2023-07-08T14:13:00;5.82;;;3.47;;
23866;SDS011;12114;53.404;-1.502;2023-07-08T14:15:44;8.18;;;3.63;;
23866;SDS011;12114;53.404;-1.502;2023-07-08T14:18:28;5.22;;;3.20;;
23866;SDS011;12114;53.404;-1.502;2023-07-08T14:21:12;6.60;;;3.30;;
23866;SDS011;12114;53.404;-1.502;2023-07-08T14:23:57;7.38;;;3.40;;
23866;SDS011;12114;53.404;-1.502;2023-07-08T14:26:42;5.88;;;3.05;;
23866;SDS011;12114;53.404;-1.502;2023-07-08T14:29:26;9.00;;;3.33;;
23866;SDS011;12114;53.404;-1.502;2023-07-08T14:32:31;6.88;;;3.28;;
23866;SDS011;12114;53.404;-1.502;2023-07-08T14:35:22;7.95;;;3.60;;
23866;SDS011;12114;53.404;-1.502;2023-07-08T14:38:10;7.43;;;3.30;;
23866;SDS011;12114;53.404;-1.502;2023-07-08T14:40:56;6.70;;;3.40;;
23866;SDS011;12114;53.404;-1.502;2023-07-08T14:43:39;7.47;;;3.40;;
23866;SDS011;12114;53.404;-1.502;2023-07-08T14:46:23;7.47;;;3.60;;
23866;SDS011;12114;53.404;-1.502;2023-07-08T14:49:11;7.00;;;3.33;;
23866;SDS011;12114;53.404;-1.502;2023-07-08T14:51:59;6.45;;;3.42;;
23866;SDS011;12114;53.404;-1.502;2023-07-08T14:54:43;7.38;;;3.70;;
23866;SDS011;12114;53.404;-1.502;2023-07-08T14:57:27;8.35;;;3.92;;
23866;SDS011;12114;53.404;-1.502;2023-07-08T15:00:14;6.43;;;3.78;;
23866;SDS011;12114;53.404;-1.502;2023-07-08T15:02:59;8.27;;;4.68;;
23866;SDS011;12114;53.404;-1.502;2023-07-08T15:05:43;10.40;;;4.53;;
23866;SDS011;12114;53.404;-1.502;2023-07-08T15:08:27;6.82;;;4.25;;
23866;SDS011;12114;53.404;-1.502;2023-07-08T15:11:11;7.38;;;4.88;;
23866;SDS011;12114;53.404;-1.502;2023-07-08T15:13:56;6.55;;;4.63;;
23866;SDS011;12114;53.404;-1.502;2023-07-08T15:16:39;7.93;;;4.93;;
23866;SDS011;12114;53.404;-1.502;2023-07-08T15:19:23;6.10;;;4.38;;
23866;SDS011;12114;53.404;-1.502;2023-07-08T15:22:07;8.88;;;4.85;;
23866;SDS011;12114;53.404;-1.502;2023-07-08T15:24:51;6.10;;;4.50;;
23866;SDS011;12114;53.404;-1.502;2023-07-08T15:27:36;7.03;;;4.70;;
23866;SDS011;12114;53.404;-1.502;2023-07-08T15:30:22;10.18;;;4.93;;
23866;SDS011;12114;53.404;-1.502;2023-07-08T15:33:07;11.00;;;5.80;;
23866;SDS011;12114;53.404;-1.502;2023-07-08T15:35:52;7.55;;;5.20;;
23866;SDS011;12114;53.404;-1.502;2023-07-08T15:38:37;7.65;;;4.50;;
23866;SDS011;12114;53.404;-1.502;2023-07-08T15:44:07;8.85;;;5.10;;
23866;SDS011;12114;53.404;-1.502;2023-07-08T15:46:51;10.07;;;5.43;;
23866;SDS011;12114;53.404;-1.502;2023-07-08T15:49:35;8.02;;;4.95;;
23866;SDS011;12114;53.404;-1.502;2023-07-08T15:52:19;7.70;;;5.03;;
23866;SDS011;12114;53.404;-1.502;2023-07-08T15:55:03;9.45;;;5.45;;
23866;SDS011;12114;53.404;-1.502;2023-07-08T15:57:48;9.45;;;5.38;;
23866;SDS011;12114;53.404;-1.502;2023-07-08T16:00:33;7.72;;;5.05;;
23866;SDS011;12114;53.404;-1.502;2023-07-08T16:03:25;8.32;;;3.72;;
23866;SDS011;12114;53.404;-1.502;2023-07-08T16:06:09;6.40;;;3.67;;
23866;SDS011;12114;53.404;-1.502;2023-07-08T16:08:53;7.10;;;3.00;;
23866;SDS011;12114;53.404;-1.502;2023-07-08T16:11:37;6.70;;;3.30;;
23866;SDS011;12114;53.404;-1.502;2023-07-08T16:14:21;6.15;;;2.90;;
23866;SDS011;12114;53.404;-1.502;2023-07-08T16:17:09;5.28;;;3.00;;
23866;SDS011;12114;53.404;-1.502;2023-07-08T16:19:53;6.85;;;2.90;;
23866;SDS011;12114;53.404;-1.502;2023-07-08T16:22:37;5.38;;;3.28;;
23866;SDS011;12114;53.404;-1.502;2023-07-08T16:25:25;8.57;;;3.58;;
23866;SDS011;12114;53.404;-1.502;2023-07-08T16:28:19;6.03;;;3.58;;
23866;SDS011;12114;53.404;-1.502;2023-07-08T16:31:08;5.27;;;3.30;;
23866;SDS011;12114;53.404;-1.502;2023-07-08T16:33:53;6.88;;;3.30;;
23866;SDS011;12114;53.404;-1.502;2023-07-08T16:36:38;7.47;;;3.65;;
23866;SDS011;12114;53.404;-1.502;2023-07-08T16:39:23;6.65;;;3.40;;
23866;SDS011;12114;53.404;-1.502;2023-07-08T16:42:09;5.43;;;3.42;;
23866;SDS011;12114;53.404;-1.502;2023-07-08T16:44:56;7.93;;;3.67;;
23866;SDS011;12114;53.404;-1.502;2023-07-08T16:47:40;6.88;;;3.60;;
23866;SDS011;12114;53.404;-1.502;2023-07-08T16:50:26;6.50;;;3.85;;
23866;SDS011;12114;53.404;-1.502;2023-07-08T16:53:11;7.28;;;3.33;;
23866;SDS011;12114;53.404;-1.502;2023-07-08T16:55:55;8.20;;;3.90;;
23866;SDS011;12114;53.404;-1.502;2023-07-08T16:58:39;6.70;;;3.60;;
23866;SDS011;12114;53.404;-1.502;2023-07-08T17:01:23;6.95;;;3.95;;
23866;SDS011;12114;53.404;-1.502;2023-07-08T17:04:11;8.93;;;4.45;;
23866;SDS011;12114;53.404;-1.502;2023-07-08T17:06:55;5.53;;;3.58;;
23866;SDS011;12114;53.404;-1.502;2023-07-08T17:09:39;9.02;;;3.53;;
23866;SDS011;12114;53.404;-1.502;2023-07-08T17:12:23;7.60;;;4.00;;
23866;SDS011;12114;53.404;-1.502;2023-07-08T17:15:08;7.10;;;3.70;;